createdAt,value
2022-10-04T00:02:25.614Z,100980.22
2022-10-04T00:05:03.099Z,100979.38
2022-10-04T00:07:35.363Z,100973.34
2022-10-04T00:10:08.873Z,100969.88
2022-10-04T00:12:41.118Z,100969.88
2022-10-04T00:15:24.810Z,100970.75
2022-10-04T00:18:18.476Z,100972.56
2022-10-04T00:21:05.253Z,100969.94
2022-10-04T00:23:45.449Z,100975.22
2022-10-04T00:26:31.617Z,100968.22
2022-10-04T00:28:59.963Z,100969.09
2022-10-04T00:31:30.577Z,100956.88
2022-10-04T00:34:38.231Z,100952.56
2022-10-04T00:37:14.794Z,100953.44
2022-10-04T00:39:44.984Z,100949.03
2022-10-04T00:42:40.143Z,100957.84
2022-10-04T00:45:15.451Z,100949.97
2022-10-04T00:48:09.714Z,100945.59
2022-10-04T00:50:43.651Z,100947.38
2022-10-04T00:53:24.158Z,100937.72
2022-10-04T00:55:56.954Z,100935.94
2022-10-04T00:58:30.418Z,100938.53
2022-10-04T01:01:00.599Z,100944.63
2022-10-04T01:03:34.617Z,100945.41
2022-10-04T01:06:06.310Z,100940.09
2022-10-04T01:08:39.694Z,100947.06
2022-10-04T01:11:12.686Z,100949.66
2022-10-04T01:13:44.497Z,100946.06
2022-10-04T01:16:16.158Z,100942.50
2022-10-04T01:18:47.409Z,100939.88
2022-10-04T01:21:28.215Z,100939.75
2022-10-04T01:24:18.635Z,100932.69
2022-10-04T01:26:47.066Z,100940.47
2022-10-04T01:29:18.504Z,100923.78
2022-10-04T01:31:48.917Z,100922.84
2022-10-04T01:34:19.482Z,100920.97
2022-10-04T01:36:49.659Z,100917.44
2022-10-04T01:39:22.457Z,100913.00
2022-10-04T01:41:57.428Z,100910.34
2022-10-04T01:44:32.985Z,100904.16
2022-10-04T01:47:09.236Z,100894.50
2022-10-04T01:49:40.667Z,100899.69
2022-10-04T01:52:16.347Z,100893.53
2022-10-04T01:54:50.430Z,100894.38
2022-10-04T01:57:22.235Z,100895.22
2022-10-04T01:59:56.165Z,100894.28
2022-10-04T02:02:32.054Z,100900.31
2022-10-04T02:05:14.854Z,100900.28
2022-10-04T02:07:44.539Z,100899.41
2022-10-04T02:10:19.657Z,100905.44
2022-10-04T02:12:50.537Z,100896.63
2022-10-04T02:15:21.347Z,100889.63
2022-10-04T02:17:50.182Z,100890.41
2022-10-04T02:20:21.295Z,100886.06
2022-10-04T02:22:53.451Z,100892.94
2022-10-04T02:25:23.778Z,100884.16
2022-10-04T02:27:55.559Z,100880.59
2022-10-04T02:30:25.170Z,100877.91
2022-10-04T02:32:57.627Z,100875.19
2022-10-04T02:35:28.210Z,100866.44
2022-10-04T02:38:08.755Z,100862.84
2022-10-04T02:40:45.984Z,100858.38
2022-10-04T02:43:19.538Z,100857.44
2022-10-04T02:45:53.333Z,100850.34
2022-10-04T02:48:29.696Z,100839.00
2022-10-04T02:51:06.140Z,100838.13
2022-10-04T02:53:44.351Z,100841.53
2022-10-04T02:56:14.779Z,100845.97
2022-10-04T02:58:43.712Z,100853.81
2022-10-04T03:01:18.956Z,100850.34
2022-10-04T03:03:48.659Z,100845.13
2022-10-04T03:06:20.092Z,100853.94
2022-10-04T03:08:52.496Z,100841.81
2022-10-04T03:11:27.306Z,100844.53
2022-10-04T03:13:59.741Z,100841.06
2022-10-04T03:16:28.626Z,100842.88
2022-10-04T03:18:58.513Z,100837.75
2022-10-04T03:21:27.894Z,100831.66
2022-10-04T03:23:56.580Z,100834.38
2022-10-04T03:26:30.397Z,100816.94
2022-10-04T03:28:59.895Z,100810.88
2022-10-04T03:31:29.647Z,100820.44
2022-10-04T03:33:59.051Z,100820.44
2022-10-04T03:36:28.422Z,100817.00
2022-10-04T03:38:58.846Z,100818.78
2022-10-04T03:41:28.595Z,100816.13
2022-10-04T03:44:00.418Z,100823.13
2022-10-04T03:46:32.608Z,100820.56
2022-10-04T03:49:01.545Z,100826.69
2022-10-04T03:51:30.181Z,100823.22
2022-10-04T03:54:01.399Z,100802.28
2022-10-04T03:56:33.960Z,100805.88
2022-10-04T03:59:04.984Z,100812.88
2022-10-04T04:01:40.450Z,100806.75
2022-10-04T04:04:19.989Z,100807.63
2022-10-04T04:06:56.055Z,100804.09
2022-10-04T04:09:27.659Z,100805.88
2022-10-04T04:11:58.837Z,100796.25
2022-10-04T04:14:29.066Z,100790.94
2022-10-04T04:17:18.596Z,100794.44
2022-10-04T04:19:48.390Z,100815.34
2022-10-04T04:22:19.078Z,100808.31
2022-10-04T04:24:49.653Z,100796.00
2022-10-04T04:27:19.782Z,100790.69
2022-10-04T04:29:52.597Z,100794.06
2022-10-04T04:32:24.193Z,100798.38
2022-10-04T04:34:58.416Z,100792.19
2022-10-04T04:37:26.797Z,100787.72
2022-10-04T04:39:56.406Z,100787.66
2022-10-04T04:42:33.921Z,100785.81
2022-10-04T04:45:04.740Z,100791.81
2022-10-04T04:47:36.871Z,100789.06
2022-10-04T04:50:09.271Z,100778.47
2022-10-04T04:52:38.882Z,100786.25
2022-10-04T04:55:16.736Z,100779.19
2022-10-04T04:57:45.864Z,100776.50
2022-10-04T05:00:19.387Z,100768.59
2022-10-04T05:02:58.876Z,100765.09
2022-10-04T05:05:30.350Z,100763.25
2022-10-04T05:08:13.570Z,100762.34
2022-10-04T05:10:45.378Z,100764.06
2022-10-04T05:13:15.822Z,100757.97
2022-10-04T05:15:44.901Z,100746.63
2022-10-04T05:18:28.240Z,100749.25
2022-10-04T05:21:03.953Z,100750.19
2022-10-04T05:23:34.077Z,100749.41
2022-10-04T05:26:04.752Z,100760.75
2022-10-04T05:28:34.331Z,100759.09
2022-10-04T05:31:29.595Z,100760.00
2022-10-04T05:33:59.614Z,100769.59
2022-10-04T05:36:51.898Z,100766.22
2022-10-04T05:39:26.183Z,100767.09
2022-10-04T05:42:07.718Z,100770.63
2022-10-04T05:44:45.602Z,100765.41
2022-10-04T05:47:15.327Z,100760.16
2022-10-04T05:49:46.509Z,100765.41
2022-10-04T05:52:26.183Z,100769.78
2022-10-04T05:55:17.768Z,100761.94
2022-10-04T05:57:58.235Z,100762.78
2022-10-04T06:00:40.828Z,100762.81
2022-10-04T06:03:29.173Z,100758.44
2022-10-04T06:06:01.615Z,100750.59
2022-10-04T06:08:43.634Z,100754.94
2022-10-04T06:11:27.658Z,100750.63
2022-10-04T06:14:30.555Z,100749.75
2022-10-04T06:17:22.703Z,100757.66
2022-10-04T06:20:23.579Z,100754.25
2022-10-04T06:23:00.251Z,100759.47
2022-10-04T06:25:32.902Z,100769.16
2022-10-04T06:28:15.645Z,100768.34
2022-10-04T06:31:04.370Z,100761.38
2022-10-04T06:33:50.898Z,100761.47
2022-10-04T06:36:46.706Z,100753.59
2022-10-04T06:39:44.014Z,100751.09
2022-10-04T06:42:40.561Z,100756.38
2022-10-04T06:45:28.048Z,100764.28
2022-10-04T06:48:16.722Z,100751.28
2022-10-04T06:50:51.195Z,100757.44
2022-10-04T06:53:27.650Z,100750.53
2022-10-04T06:56:13.637Z,100753.31
2022-10-04T06:59:03.032Z,100746.38
2022-10-04T07:01:33.182Z,100755.19
2022-10-04T07:04:12.489Z,100762.31
2022-10-04T07:06:47.581Z,100762.44
2022-10-04T07:09:23.313Z,100759.91
2022-10-04T07:11:56.779Z,100764.44
2022-10-04T07:14:33.706Z,100761.13
2022-10-04T07:17:06.105Z,100770.84
2022-10-04T07:19:40.786Z,100757.03
2022-10-04T07:22:15.809Z,100768.56
2022-10-04T07:24:58.518Z,100771.38
2022-10-04T07:27:31.793Z,100769.81
2022-10-04T07:30:05.280Z,100767.34
2022-10-04T07:32:38.645Z,100762.22
2022-10-04T07:35:18.339Z,100766.78
2022-10-04T07:37:53.315Z,100767.78
2022-10-04T07:40:26.470Z,100774.03
2022-10-04T07:43:00.509Z,100781.19
2022-10-04T07:45:33.464Z,100788.34
2022-10-04T07:48:17.593Z,100787.59
2022-10-04T07:50:51.995Z,100788.72
2022-10-04T07:53:25.688Z,100779.25
2022-10-04T07:55:58.357Z,100782.00
2022-10-04T07:58:45.889Z,100783.00
2022-10-04T08:01:24.291Z,100783.09
2022-10-04T08:04:15.210Z,100777.97
2022-10-04T08:06:56.094Z,100778.91
2022-10-04T08:09:49.970Z,100772.84
2022-10-04T08:12:25.741Z,100774.63
2022-10-04T08:15:16.147Z,100765.88
2022-10-04T08:17:56.489Z,100766.69
2022-10-04T08:20:37.808Z,100774.63
2022-10-04T08:23:22.469Z,100774.63
2022-10-04T08:26:05.006Z,100774.63
2022-10-04T08:29:11.798Z,100770.25
2022-10-04T08:32:04.963Z,100770.31
2022-10-04T08:34:53.181Z,100768.69
2022-10-04T08:37:33.801Z,100774.88
2022-10-04T08:40:41.718Z,100758.44
2022-10-04T08:43:50.302Z,100761.31
2022-10-04T08:46:52.900Z,100752.91
2022-10-04T08:49:45.031Z,100761.91
2022-10-04T08:52:42.101Z,100756.88
2022-10-04T08:55:34.976Z,100754.50
2022-10-04T08:58:34.667Z,100758.38
2022-10-04T09:01:40.574Z,100760.38
2022-10-04T09:04:54.741Z,100765.03
2022-10-04T09:08:05.329Z,100768.81
2022-10-04T09:10:44.498Z,100759.34
2022-10-04T09:13:30.321Z,100764.72
2022-10-04T09:16:09.244Z,100760.50
2022-10-04T09:18:51.018Z,100753.66
2022-10-04T09:21:29.791Z,100751.16
2022-10-04T09:24:48.483Z,100746.94
2022-10-04T09:27:54.217Z,100741.91
2022-10-04T09:30:32.000Z,100743.91
2022-10-04T09:33:15.673Z,100742.38
2022-10-04T09:36:07.293Z,100753.16
2022-10-04T09:39:25.573Z,100747.22
2022-10-04T09:42:16.128Z,100737.88
2022-10-04T09:45:08.276Z,100741.69
2022-10-04T09:47:45.839Z,100739.28
2022-10-04T09:50:39.791Z,100741.34
2022-10-04T09:53:36.055Z,100730.16
2022-10-04T09:56:21.494Z,100729.47
2022-10-04T09:59:08.665Z,100738.41
2022-10-04T10:01:44.999Z,100737.72
2022-10-04T10:04:43.630Z,100732.66
2022-10-04T10:07:26.379Z,100724.91
2022-10-04T10:10:20.067Z,100731.22
2022-10-04T10:13:31.904Z,100727.00
2022-10-04T10:16:12.793Z,100727.97
2022-10-04T10:18:56.079Z,100728.09
2022-10-04T10:21:48.992Z,100729.84
2022-10-04T10:24:33.560Z,100729.09
2022-10-04T10:27:14.866Z,100723.03
2022-10-04T10:30:14.459Z,100727.66
2022-10-04T10:33:09.193Z,100718.22
2022-10-04T10:35:52.467Z,100714.91
2022-10-04T10:38:40.196Z,100723.88
2022-10-04T10:41:30.182Z,100715.31
2022-10-04T10:44:16.319Z,100711.97
2022-10-04T10:46:58.429Z,100711.25
2022-10-04T10:49:49.652Z,100715.75
2022-10-04T10:53:07.593Z,100704.53
2022-10-04T10:56:18.957Z,100719.66
2022-10-04T10:59:24.477Z,100713.66
2022-10-04T11:02:14.843Z,100713.88
2022-10-04T11:05:06.695Z,100705.28
2022-10-04T11:07:51.574Z,100694.00
2022-10-04T11:10:34.794Z,100694.97
2022-10-04T11:13:38.179Z,100686.31
2022-10-04T11:16:48.318Z,100689.09
2022-10-04T11:19:41.558Z,100677.75
2022-10-04T11:22:34.758Z,100673.44
2022-10-04T11:25:36.029Z,100683.25
2022-10-04T11:28:12.334Z,100674.50
2022-10-04T11:31:09.131Z,100672.00
2022-10-04T11:34:03.237Z,100673.88
2022-10-04T11:36:50.025Z,100665.13
2022-10-04T11:39:49.868Z,100665.28
2022-10-04T11:42:31.031Z,100668.91
2022-10-04T11:45:21.452Z,100661.94
2022-10-04T11:48:02.441Z,100651.38
2022-10-04T11:50:40.005Z,100656.75
2022-10-04T11:53:47.628Z,100647.06
2022-10-04T11:56:46.849Z,100656.88
2022-10-04T11:59:27.533Z,100655.19
2022-10-04T12:02:22.329Z,100658.81
2022-10-04T12:05:36.097Z,100661.56
2022-10-04T12:08:19.544Z,100666.97
2022-10-04T12:11:15.243Z,100677.63
2022-10-04T12:13:59.504Z,100665.34
2022-10-04T12:17:19.920Z,100662.78
2022-10-04T12:20:28.701Z,100652.25
2022-10-04T12:23:15.258Z,100636.38
2022-10-04T12:26:00.393Z,100647.91
2022-10-04T12:28:51.376Z,100643.53
2022-10-04T12:31:29.292Z,100631.19
2022-10-04T12:34:05.968Z,100630.31
2022-10-04T12:36:51.011Z,100624.19
2022-10-04T12:39:40.886Z,100619.78
2022-10-04T12:42:24.231Z,100608.28
2022-10-04T12:45:21.802Z,100605.63
2022-10-04T12:48:12.236Z,100612.72
2022-10-04T12:50:53.046Z,100610.03
2022-10-04T12:53:34.330Z,100605.63
2022-10-04T12:56:21.779Z,100599.38
2022-10-04T12:59:15.311Z,100598.50
2022-10-04T13:01:54.867Z,100599.38
2022-10-04T13:04:32.735Z,100593.13
2022-10-04T13:07:32.723Z,100591.34
2022-10-04T13:10:24.953Z,100586.94
2022-10-04T13:13:33.137Z,100591.31
2022-10-04T13:19:11.054Z,100589.53
2022-10-04T13:22:02.605Z,100585.06
2022-10-04T13:24:55.003Z,100589.47
2022-10-04T13:27:30.839Z,100583.19
2022-10-04T13:30:06.936Z,100576.00
2022-10-04T13:32:45.316Z,100566.25
2022-10-04T13:35:20.879Z,100562.63
2022-10-04T13:38:07.040Z,100544.78
2022-10-04T13:40:48.498Z,100545.56
2022-10-04T13:43:47.440Z,100559.63
2022-10-04T13:46:28.055Z,100548.00
2022-10-04T13:49:06.174Z,100546.06
2022-10-04T13:51:48.108Z,100541.59
2022-10-04T13:54:49.282Z,100537.88
2022-10-04T13:57:25.229Z,100537.75
2022-10-04T14:00:00.688Z,100532.31
2022-10-04T14:03:04.852Z,100531.25
2022-10-04T14:06:08.816Z,100530.25
2022-10-04T14:09:24.390Z,100523.00
2022-10-04T14:12:17.655Z,100524.78
2022-10-04T14:15:07.401Z,100525.56
2022-10-04T14:18:13.680Z,100523.56
2022-10-04T14:21:15.300Z,100527.81
2022-10-04T14:24:07.910Z,100523.31
2022-10-04T14:27:06.241Z,100522.31
2022-10-04T14:30:07.598Z,100522.25
2022-10-04T14:33:21.084Z,100522.19
2022-10-04T14:35:57.626Z,100513.97
2022-10-04T14:38:47.787Z,100502.16
2022-10-04T14:42:07.190Z,100503.84
2022-10-04T14:45:12.423Z,100503.91
2022-10-04T14:47:49.712Z,100498.56
2022-10-04T14:50:28.256Z,100500.25
2022-10-04T14:53:10.222Z,100500.03
2022-10-04T14:56:18.140Z,100489.25
2022-10-04T14:59:00.008Z,100487.44
2022-10-04T15:01:30.103Z,100493.69
2022-10-04T15:04:15.044Z,100492.03
2022-10-04T15:06:49.537Z,100488.66
2022-10-04T15:09:53.555Z,100496.75
2022-10-04T15:13:09.211Z,100487.00
2022-10-04T15:15:58.741Z,100482.72
2022-10-04T15:18:38.559Z,100482.78
2022-10-04T15:21:32.482Z,100482.81
2022-10-04T15:24:25.604Z,100478.41
2022-10-04T15:27:32.862Z,100489.28
2022-10-04T15:30:10.824Z,100485.00
2022-10-04T15:32:46.061Z,100481.50
2022-10-04T15:35:28.521Z,100478.00
2022-10-04T15:38:01.602Z,100492.28
2022-10-04T15:40:42.938Z,100488.81
2022-10-04T15:43:22.138Z,100487.19
2022-10-04T15:46:03.498Z,100489.13
2022-10-04T15:48:47.650Z,100491.97
2022-10-04T15:51:33.971Z,100487.72
2022-10-04T15:54:44.152Z,100491.56
2022-10-04T15:57:31.313Z,100490.03
2022-10-04T16:00:08.810Z,100485.72
2022-10-04T16:02:50.532Z,100489.47
2022-10-04T16:05:27.169Z,100492.28
2022-10-04T16:08:21.222Z,100492.44
2022-10-04T16:11:03.873Z,100496.13
2022-10-04T16:13:55.534Z,100499.78
2022-10-04T16:17:11.766Z,100504.34
2022-10-04T16:20:02.011Z,100502.69
2022-10-04T16:22:32.402Z,100497.47
2022-10-04T16:25:38.554Z,100496.63
2022-10-04T16:28:20.334Z,100503.78
2022-10-04T16:31:00.899Z,100500.25
2022-10-04T16:33:36.836Z,100510.94
2022-10-04T16:36:11.819Z,100501.22
2022-10-04T16:39:07.556Z,100492.41
2022-10-04T16:41:44.282Z,100489.78
2022-10-04T16:44:37.684Z,100482.72
2022-10-04T16:47:22.131Z,100476.47
2022-10-04T16:49:55.060Z,100482.69
2022-10-04T16:52:39.465Z,100482.69
2022-10-04T16:55:43.536Z,100477.38
2022-10-04T16:58:45.079Z,100476.47
2022-10-04T17:01:55.677Z,100482.59
2022-10-04T17:04:49.287Z,100490.50
2022-10-04T17:07:30.533Z,100488.66
2022-10-04T17:10:07.045Z,100484.19
2022-10-04T17:12:47.787Z,100486.78
2022-10-04T17:15:45.255Z,100479.69
2022-10-04T17:18:19.718Z,100482.25
2022-10-04T17:20:58.106Z,100489.28
2022-10-04T17:23:51.617Z,100495.41
2022-10-04T17:26:40.788Z,100497.97
2022-10-04T17:29:25.460Z,100493.44
2022-10-04T17:31:59.273Z,100508.38
2022-10-04T17:34:41.318Z,100509.13
2022-10-04T17:37:21.177Z,100509.03
2022-10-04T17:39:54.405Z,100515.16
2022-10-04T17:42:34.868Z,100512.38
2022-10-04T17:45:19.707Z,100502.63
2022-10-04T17:48:13.604Z,100503.41
2022-10-04T17:51:08.369Z,100504.16
2022-10-04T17:53:58.635Z,100503.19
2022-10-04T17:56:34.627Z,100503.94
2022-10-04T17:59:12.386Z,100504.75
2022-10-04T18:01:47.154Z,100515.22
2022-10-04T18:04:20.586Z,100512.47
2022-10-04T18:06:54.461Z,100505.31
2022-10-04T18:09:28.220Z,100513.13
2022-10-04T18:12:00.671Z,100517.47
2022-10-04T18:15:01.758Z,100519.09
2022-10-04T18:17:39.274Z,100527.84
2022-10-04T18:20:32.453Z,100520.69
2022-10-04T18:23:04.041Z,100534.66
2022-10-04T18:25:33.921Z,100527.50
2022-10-04T18:28:06.824Z,100531.78
2022-10-04T18:30:51.483Z,100526.41
2022-10-04T18:33:26.429Z,100517.53
2022-10-04T18:36:05.790Z,100516.56
2022-10-04T18:38:35.877Z,100518.25
2022-10-04T18:41:19.076Z,100519.09
2022-10-04T18:43:53.468Z,100526.03
2022-10-04T18:46:25.247Z,100527.66
2022-10-04T18:49:01.060Z,100531.97
2022-10-04T18:51:39.154Z,100535.44
2022-10-04T18:54:21.424Z,100542.38
2022-10-04T18:57:00.444Z,100540.50
2022-10-04T18:59:57.951Z,100547.44
2022-10-04T19:02:35.150Z,100549.06
2022-10-04T19:05:11.726Z,100553.38
2022-10-04T19:07:47.267Z,100563.00
2022-10-04T19:10:22.522Z,100561.16
2022-10-04T19:13:03.480Z,100560.19
2022-10-04T19:15:47.670Z,100556.66
2022-10-04T19:18:43.463Z,100552.22
2022-10-04T19:21:23.327Z,100553.94
2022-10-04T19:24:15.220Z,100538.97
2022-10-04T19:26:48.635Z,100543.31
2022-10-04T19:29:30.996Z,100530.09
2022-10-04T19:32:02.953Z,100548.53
2022-10-04T19:34:39.910Z,100537.91
2022-10-04T19:37:15.664Z,100537.84
2022-10-04T19:39:57.947Z,100530.78
2022-10-04T19:42:35.023Z,100525.50
2022-10-04T19:45:19.455Z,100532.47
2022-10-04T19:47:50.937Z,100534.19
2022-10-04T19:50:23.715Z,100532.38
2022-10-04T19:52:54.408Z,100542.88
2022-10-04T19:55:29.802Z,100548.06
2022-10-04T19:58:07.323Z,100549.78
2022-10-04T20:00:37.590Z,100542.69
2022-10-04T20:03:12.783Z,100548.78
2022-10-04T20:05:45.874Z,100548.69
2022-10-04T20:08:15.534Z,100550.34
2022-10-04T20:10:45.446Z,100546.84
2022-10-04T20:13:23.432Z,100547.59
2022-10-04T20:15:56.327Z,100542.28
2022-10-04T20:19:01.062Z,100547.50
2022-10-04T20:21:32.115Z,100537.75
2022-10-04T20:24:01.525Z,100545.56
2022-10-04T20:26:56.418Z,100540.25
2022-10-04T20:29:39.844Z,100539.28
2022-10-04T20:32:09.353Z,100537.47
2022-10-04T20:34:49.841Z,100540.88
2022-10-04T20:37:19.203Z,100542.56
2022-10-04T20:39:57.417Z,100553.00
2022-10-04T20:42:35.439Z,100539.75
2022-10-04T20:45:21.725Z,100535.31
2022-10-04T20:47:51.853Z,100532.56
2022-10-04T20:50:39.646Z,100536.91
2022-10-04T20:53:15.879Z,100526.28
2022-10-04T20:55:46.026Z,100522.72
2022-10-04T20:58:32.160Z,100525.25
2022-10-04T21:01:13.415Z,100530.44
2022-10-04T21:03:41.782Z,100526.00
2022-10-04T21:06:12.381Z,100518.06
2022-10-04T21:08:41.524Z,100517.13
2022-10-04T21:11:21.155Z,100519.69
2022-10-04T21:13:54.120Z,100523.13
2022-10-04T21:16:39.995Z,100526.56
2022-10-04T21:19:30.971Z,100516.84
2022-10-04T21:22:00.355Z,100504.56
2022-10-04T21:24:35.851Z,100508.88
2022-10-04T21:27:05.676Z,100517.56
2022-10-04T21:29:36.652Z,100538.53
2022-10-04T21:32:05.823Z,100530.59
2022-10-04T21:34:52.483Z,100529.69
2022-10-04T21:37:21.816Z,100526.16
2022-10-04T21:39:50.181Z,100531.41
2022-10-04T21:42:19.429Z,100527.84
2022-10-04T21:44:49.439Z,100530.41
2022-10-04T21:47:18.413Z,100531.22
2022-10-04T21:49:47.209Z,100529.41
2022-10-04T21:52:17.417Z,100534.66
2022-10-04T21:54:45.810Z,100521.47
2022-10-04T21:57:14.575Z,100523.22
2022-10-04T21:59:42.853Z,100522.28
2022-10-04T22:02:12.579Z,100537.97
2022-10-04T22:04:41.825Z,100531.84
2022-10-04T22:07:10.718Z,100532.78
2022-10-04T22:09:39.078Z,100532.78
2022-10-04T22:12:07.433Z,100535.41
2022-10-04T22:14:35.815Z,100537.16
2022-10-04T22:17:04.261Z,100537.22
2022-10-04T22:19:33.933Z,100533.72
2022-10-04T22:22:02.263Z,100525.91
2022-10-04T22:24:30.574Z,100521.59
2022-10-04T22:26:59.424Z,100513.72
2022-10-04T22:29:28.102Z,100505.88
2022-10-04T22:31:56.505Z,100505.06
2022-10-04T22:34:24.963Z,100505.97
2022-10-04T22:36:54.884Z,100510.38
2022-10-04T22:39:23.247Z,100508.63
2022-10-04T22:41:56.451Z,100517.41
2022-10-04T22:44:28.530Z,100516.63
2022-10-04T22:46:59.862Z,100522.81
2022-10-04T22:49:31.415Z,100527.25
2022-10-04T22:52:04.012Z,100527.31
2022-10-04T22:54:34.856Z,100525.63
2022-10-04T22:57:03.258Z,100519.56
2022-10-04T22:59:35.847Z,100518.75
2022-10-04T23:02:11.360Z,100516.13
2022-10-04T23:04:41.775Z,100509.16
2022-10-04T23:07:11.469Z,100507.44
2022-10-04T23:09:39.816Z,100505.72
2022-10-04T23:12:09.861Z,100500.47
2022-10-04T23:14:38.980Z,100496.97
2022-10-04T23:17:21.428Z,100498.75
2022-10-04T23:19:50.443Z,100493.47
2022-10-04T23:22:24.106Z,100504.91
2022-10-04T23:24:52.856Z,100504.91
2022-10-04T23:27:21.206Z,100500.53
2022-10-04T23:29:53.548Z,100497.03
2022-10-04T23:32:21.891Z,100494.41
2022-10-04T23:34:56.481Z,100497.03
2022-10-04T23:37:28.366Z,100503.16
2022-10-04T23:39:56.664Z,100501.41
2022-10-04T23:42:29.553Z,100492.59
2022-10-04T23:44:58.789Z,100490.84
2022-10-04T23:47:34.029Z,100496.09
2022-10-04T23:50:05.604Z,100494.34
2022-10-04T23:52:38.245Z,100492.59
2022-10-04T23:55:15.527Z,100485.53
2022-10-04T23:57:43.931Z,100483.78
